createdAt,value
2023-03-29T10:50:19.794Z,1014.6
2023-03-29T11:14:17.221Z,1014.4
2023-03-29T13:04:05.634Z,1013.6
2023-03-29T13:09:05.772Z,1013.7
2023-03-29T13:14:05.147Z,1013.6
2023-03-29T13:19:03.099Z,1013.7
2023-03-29T13:24:02.669Z,1013.6
2023-03-29T13:29:02.592Z,1013.5
2023-03-29T13:34:02.416Z,1013.5
2023-03-29T13:39:00.476Z,1013.4
2023-03-29T13:44:00.386Z,1013.4
2023-03-29T13:49:00.411Z,1013.4
2023-03-29T13:53:59.776Z,1013.3
2023-03-29T13:58:59.169Z,1013.4
2023-03-29T15:04:34.991Z,1012.9
2023-03-29T15:19:32.311Z,1012.9
2023-03-29T15:29:32.430Z,1012.8
2023-03-29T15:49:29.689Z,1012.6
2023-03-29T17:04:07.462Z,1012.1
2023-03-29T17:09:07.410Z,1012
2023-03-29T17:14:06.473Z,1012.2
2023-03-29T17:19:05.891Z,1012.2
2023-03-29T17:24:04.488Z,1012.2
2023-03-29T17:29:04.143Z,1012.2
2023-03-29T17:34:04.328Z,1012.2
2023-03-29T17:39:03.701Z,1012.1
2023-03-29T17:44:03.079Z,1012.1
2023-03-29T17:49:03.045Z,1012.1
2023-03-29T17:54:03.126Z,1012
2023-03-29T17:59:02.458Z,1012
2023-03-29T18:04:03.296Z,1012
2023-03-29T18:08:59.998Z,1011.8
2023-03-29T18:14:00.880Z,1011.8
2023-03-29T18:19:00.155Z,1011.7
2023-03-29T18:23:59.235Z,1011.6
2023-03-29T18:28:58.787Z,1011.6
2023-03-29T18:33:58.712Z,1011.7
2023-03-29T18:38:57.956Z,1011.7
2023-03-29T18:43:58.721Z,1011.8
2023-03-29T18:48:56.393Z,1011.8
2023-03-29T18:53:56.504Z,1011.9
2023-03-29T18:58:55.380Z,1011.8
2023-03-29T19:20:14.780Z,1011.5
2023-03-29T20:58:42.202Z,1010.4
2023-03-29T21:03:42.838Z,1010.2
2023-03-29T21:08:39.627Z,1010.1
2023-03-29T21:13:39.702Z,1010.1
2023-03-29T21:18:39.441Z,1009.9
2023-03-29T21:23:39.454Z,1009.8
2023-03-29T21:28:38.500Z,1009.8
2023-03-29T21:33:38.264Z,1009.6
2023-03-29T21:38:37.696Z,1009.5
2023-03-29T21:43:38.334Z,1009.3
2023-03-29T21:48:35.678Z,1009.2
2023-03-29T21:53:35.647Z,1009
2023-03-29T21:58:34.714Z,1009.2
2023-03-29T21:59:56.855Z,1009
